createdAt,value
2019-03-21T00:01:35.753Z,24.80
2019-03-21T00:04:09.723Z,16.17
2019-03-21T00:06:41.237Z,20.73
2019-03-21T00:09:14.982Z,21.30
2019-03-21T00:12:02.128Z,20.13
2019-03-21T00:14:55.573Z,26.37
2019-03-21T00:17:33.978Z,27.33
2019-03-21T00:20:06.186Z,25.13
2019-03-21T00:22:39.928Z,23.00
2019-03-21T00:25:12.713Z,23.70
2019-03-21T00:27:42.548Z,21.97
2019-03-21T00:30:17.220Z,21.60
2019-03-21T00:32:47.045Z,19.03
2019-03-21T00:35:19.617Z,23.57
2019-03-21T00:37:50.049Z,26.17
2019-03-21T00:40:26.266Z,29.20
2019-03-21T00:42:57.487Z,21.37
2019-03-21T00:45:32.194Z,23.90
2019-03-21T00:48:02.998Z,25.67
2019-03-21T00:50:35.124Z,27.00
2019-03-21T00:53:05.814Z,26.07
2019-03-21T00:55:38.620Z,26.33
2019-03-21T00:58:08.868Z,21.87
2019-03-21T01:00:50.712Z,31.10
2019-03-21T01:03:25.208Z,24.20
2019-03-21T01:06:07.647Z,28.50
2019-03-21T01:08:44.560Z,25.33
2019-03-21T01:11:16.094Z,30.07
2019-03-21T01:13:49.033Z,26.43
2019-03-21T01:16:18.895Z,25.60
2019-03-21T01:18:51.677Z,22.80
2019-03-21T01:21:22.121Z,21.93
2019-03-21T01:23:55.250Z,24.97
2019-03-21T01:26:26.394Z,29.27
2019-03-21T01:28:56.208Z,25.73
2019-03-21T01:31:26.062Z,22.37
2019-03-21T01:33:55.906Z,28.40
2019-03-21T01:36:26.342Z,26.03
2019-03-21T01:38:56.143Z,25.87
2019-03-21T01:41:26.027Z,23.20
2019-03-21T01:43:55.836Z,32.70
2019-03-21T01:46:26.900Z,26.43
2019-03-21T01:49:05.446Z,24.03
2019-03-21T01:51:37.269Z,26.80
2019-03-21T01:54:07.166Z,31.43
2019-03-21T01:56:47.166Z,30.40
2019-03-21T01:59:17.036Z,22.70
2019-03-21T02:01:48.482Z,21.47
2019-03-21T02:04:19.287Z,25.03
2019-03-21T02:06:53.794Z,20.30
2019-03-21T02:09:23.580Z,27.23
2019-03-21T02:11:54.460Z,18.77
2019-03-21T02:14:24.304Z,23.47
2019-03-21T02:16:57.139Z,20.30
2019-03-21T02:19:28.178Z,26.40
2019-03-21T02:22:01.580Z,22.60
2019-03-21T02:24:32.583Z,18.50
2019-03-21T02:27:03.663Z,23.97
2019-03-21T02:29:34.175Z,21.87
2019-03-21T02:32:05.079Z,19.60
2019-03-21T02:34:35.710Z,23.93
2019-03-21T02:37:07.372Z,23.53
2019-03-21T02:39:39.718Z,21.67
2019-03-21T02:42:09.566Z,21.37
2019-03-21T02:44:40.170Z,18.97
2019-03-21T02:47:11.782Z,23.07
2019-03-21T02:49:42.917Z,17.93
2019-03-21T02:52:12.924Z,21.83
2019-03-21T02:54:42.750Z,26.03
2019-03-21T02:57:15.573Z,16.60
2019-03-21T02:59:46.851Z,19.87
2019-03-21T03:02:19.765Z,19.77
2019-03-21T03:04:51.159Z,19.33
2019-03-21T03:07:20.991Z,21.13
2019-03-21T03:09:52.740Z,20.87
2019-03-21T03:12:24.092Z,21.17
2019-03-21T03:14:53.954Z,21.33
2019-03-21T03:17:28.326Z,20.67
2019-03-21T03:19:58.204Z,22.27
2019-03-21T03:22:28.445Z,14.07
2019-03-21T03:24:58.990Z,20.23
2019-03-21T03:27:33.338Z,17.37
2019-03-21T03:30:03.241Z,14.13
2019-03-21T03:32:33.133Z,20.47
2019-03-21T03:35:08.513Z,20.40
2019-03-21T03:37:39.886Z,18.53
2019-03-21T03:40:19.516Z,20.57
2019-03-21T03:42:49.331Z,28.83
2019-03-21T03:45:37.272Z,19.10
2019-03-21T03:47:59.730Z,23.57
2019-03-21T03:50:30.253Z,22.53
2019-03-21T03:53:00.353Z,17.07
2019-03-21T03:55:32.160Z,18.73
2019-03-21T03:58:19.837Z,23.13
2019-03-21T04:00:49.704Z,23.63
2019-03-21T04:03:20.110Z,17.93
2019-03-21T04:05:49.890Z,19.97
2019-03-21T04:08:26.871Z,24.47
2019-03-21T04:10:59.800Z,20.23
2019-03-21T04:13:30.797Z,16.50
2019-03-21T04:16:00.668Z,23.53
2019-03-21T04:18:31.309Z,24.10
2019-03-21T04:21:09.591Z,22.30
2019-03-21T04:23:39.353Z,23.23
2019-03-21T04:26:28.497Z,19.83
2019-03-21T04:29:05.439Z,20.50
2019-03-21T04:31:38.020Z,22.87
2019-03-21T04:34:10.737Z,22.10
2019-03-21T04:36:41.258Z,22.23
2019-03-21T04:39:11.497Z,21.07
2019-03-21T04:41:44.823Z,20.30
2019-03-21T04:44:15.075Z,24.13
2019-03-21T04:46:45.460Z,22.27
2019-03-21T04:49:16.300Z,19.37
2019-03-21T04:51:49.500Z,23.07
2019-03-21T04:54:21.719Z,22.17
2019-03-21T04:56:53.235Z,20.40
2019-03-21T04:59:29.979Z,21.17
2019-03-21T05:02:01.463Z,23.07
2019-03-21T05:04:32.845Z,19.23
2019-03-21T05:07:04.868Z,25.30
2019-03-21T05:09:37.343Z,27.40
2019-03-21T05:12:07.219Z,19.67
2019-03-21T05:14:39.120Z,24.33
2019-03-21T05:17:11.010Z,23.07
2019-03-21T05:19:40.966Z,19.77
2019-03-21T05:22:11.254Z,19.17
2019-03-21T05:24:43.724Z,20.50
2019-03-21T05:27:13.619Z,23.83
2019-03-21T05:29:45.355Z,25.93
2019-03-21T05:32:16.546Z,23.77
2019-03-21T05:34:49.328Z,24.40
2019-03-21T05:37:20.882Z,29.23
2019-03-21T05:39:52.962Z,20.47
2019-03-21T05:42:25.548Z,21.47
2019-03-21T05:45:00.794Z,21.67
2019-03-21T05:47:33.320Z,20.03
2019-03-21T05:50:09.605Z,25.30
2019-03-21T05:52:41.941Z,21.87
2019-03-21T05:55:13.249Z,27.03
2019-03-21T05:57:46.248Z,23.03
2019-03-21T06:00:18.992Z,25.17
2019-03-21T06:03:18.279Z,26.83
2019-03-21T06:05:56.982Z,23.10
2019-03-21T06:08:29.994Z,23.03
2019-03-21T06:10:59.782Z,22.17
2019-03-21T06:13:29.628Z,26.57
2019-03-21T06:16:13.267Z,19.43
2019-03-21T06:19:07.092Z,22.77
2019-03-21T06:21:50.470Z,19.23
2019-03-21T06:24:27.041Z,20.83
2019-03-21T06:27:30.921Z,18.83
2019-03-21T06:30:00.714Z,22.73
2019-03-21T06:32:31.986Z,20.17
2019-03-21T06:35:01.806Z,21.33
2019-03-21T06:37:32.421Z,21.13
2019-03-21T06:40:04.997Z,23.27
2019-03-21T06:42:35.121Z,17.83
2019-03-21T06:45:07.021Z,22.63
2019-03-21T06:47:37.158Z,20.47
2019-03-21T06:50:09.307Z,22.87
2019-03-21T06:52:39.121Z,17.50
2019-03-21T06:55:09.549Z,21.87
2019-03-21T06:57:39.979Z,19.20
2019-03-21T07:00:11.710Z,17.33
2019-03-21T07:02:43.839Z,22.73
2019-03-21T07:05:14.898Z,16.87
2019-03-21T07:07:45.838Z,17.47
2019-03-21T07:10:16.401Z,18.97
2019-03-21T07:12:46.257Z,18.27
2019-03-21T07:15:16.083Z,23.77
2019-03-21T07:17:45.930Z,16.33
2019-03-21T07:20:18.236Z,19.90
2019-03-21T07:22:50.853Z,19.50
2019-03-21T07:25:23.286Z,20.40
2019-03-21T07:27:54.455Z,19.97
2019-03-21T07:30:27.277Z,18.77
2019-03-21T07:32:57.336Z,20.90
2019-03-21T07:35:38.570Z,14.67
2019-03-21T07:38:17.395Z,12.87
2019-03-21T07:40:50.456Z,18.33
2019-03-21T07:43:22.561Z,16.63
2019-03-21T07:45:52.465Z,15.23
2019-03-21T07:48:23.329Z,11.20
2019-03-21T07:50:53.899Z,11.60
2019-03-21T07:53:27.334Z,13.60
2019-03-21T07:55:57.117Z,11.23
2019-03-21T07:58:33.245Z,14.13
2019-03-21T08:01:04.929Z,12.60
2019-03-21T08:03:37.199Z,13.33
2019-03-21T08:06:12.263Z,11.53
2019-03-21T08:08:43.024Z,15.27
2019-03-21T08:11:14.417Z,10.53
2019-03-21T08:13:44.325Z,9.80
2019-03-21T08:16:18.999Z,10.17
2019-03-21T08:18:48.829Z,14.50
2019-03-21T08:21:21.349Z,12.77
2019-03-21T08:23:51.760Z,10.03
2019-03-21T08:26:22.087Z,8.80
2019-03-21T08:28:56.840Z,8.90
2019-03-21T08:31:29.312Z,11.93
2019-03-21T08:33:59.228Z,9.33
2019-03-21T08:36:30.320Z,6.83
2019-03-21T08:39:01.519Z,8.77
2019-03-21T08:41:36.126Z,9.13
2019-03-21T08:44:11.993Z,9.60
2019-03-21T08:46:41.773Z,11.90
2019-03-21T08:49:19.657Z,8.70
2019-03-21T08:51:53.077Z,11.53
2019-03-21T08:57:15.441Z,6.03
2019-03-21T08:59:48.030Z,7.83
2019-03-21T09:05:18.030Z,9.87
2019-03-21T09:10:56.618Z,9.87
2019-03-21T09:13:34.054Z,8.57
2019-03-21T09:16:17.573Z,9.67
2019-03-21T09:27:35.788Z,5.97
2019-03-21T09:30:17.802Z,8.17
2019-03-21T09:32:49.880Z,9.23
2019-03-21T09:35:41.530Z,10.90
2019-03-21T09:38:31.033Z,13.37
2019-03-21T09:41:16.067Z,14.40
2019-03-21T09:43:47.722Z,10.83
2019-03-21T09:46:35.201Z,11.23
2019-03-21T09:49:12.867Z,14.20
2019-03-21T09:51:47.706Z,12.90
2019-03-21T09:54:27.274Z,10.57
2019-03-21T09:56:59.655Z,14.47
2019-03-21T09:59:34.072Z,9.37
2019-03-21T10:02:04.676Z,9.80
2019-03-21T10:04:34.549Z,11.87
2019-03-21T10:07:09.922Z,11.43
2019-03-21T10:09:42.655Z,10.63
2019-03-21T10:12:19.167Z,14.33
2019-03-21T10:14:52.926Z,11.27
2019-03-21T10:17:28.629Z,8.73
2019-03-21T10:20:01.720Z,8.50
2019-03-21T10:22:35.726Z,11.73
2019-03-21T10:25:15.152Z,14.10
2019-03-21T10:27:46.674Z,9.33
2019-03-21T10:33:54.860Z,10.30
2019-03-21T10:36:34.047Z,7.53
2019-03-21T10:39:09.696Z,13.23
2019-03-21T10:41:42.555Z,10.27
2019-03-21T10:44:28.465Z,12.97
2019-03-21T10:47:18.978Z,10.80
2019-03-21T10:49:58.025Z,9.47
2019-03-21T10:52:29.399Z,10.60
2019-03-21T10:55:00.761Z,11.07
2019-03-21T10:57:39.335Z,14.47
2019-03-21T11:00:17.121Z,12.13
2019-03-21T11:03:04.817Z,11.07
2019-03-21T11:05:47.020Z,14.43
2019-03-21T11:08:19.692Z,11.23
2019-03-21T11:10:52.646Z,12.97
2019-03-21T11:13:26.488Z,11.43
2019-03-21T11:15:57.172Z,12.67
2019-03-21T11:18:36.026Z,12.47
2019-03-21T11:21:01.605Z,9.70
2019-03-21T11:23:35.789Z,13.43
2019-03-21T11:26:09.380Z,12.47
2019-03-21T11:28:46.950Z,12.00
2019-03-21T11:31:22.167Z,7.23
2019-03-21T11:33:53.321Z,12.57
2019-03-21T11:36:37.729Z,11.13
2019-03-21T11:39:02.226Z,7.57
2019-03-21T11:41:35.050Z,9.20
2019-03-21T11:44:21.787Z,10.13
2019-03-21T11:46:55.784Z,11.03
2019-03-21T11:49:25.375Z,9.90
2019-03-21T11:51:59.809Z,10.00
2019-03-21T11:54:30.526Z,9.90
2019-03-21T11:57:01.890Z,9.23
2019-03-21T11:59:50.687Z,9.53
2019-03-21T12:02:26.597Z,12.40
2019-03-21T12:05:00.503Z,10.00
2019-03-21T12:07:36.821Z,10.33
2019-03-21T12:10:13.509Z,11.77
2019-03-21T12:15:48.533Z,11.67
2019-03-21T12:21:27.682Z,12.13
2019-03-21T12:30:45.383Z,10.60
2019-03-21T12:33:37.436Z,11.63
2019-03-21T12:36:08.763Z,10.80
2019-03-21T12:38:42.793Z,14.23
2019-03-21T12:41:31.429Z,10.00
2019-03-21T12:44:23.789Z,11.87
2019-03-21T12:50:15.276Z,13.67
2019-03-21T12:58:49.909Z,12.77
2019-03-21T13:01:31.009Z,15.43
2019-03-21T13:10:04.958Z,16.03
2019-03-21T13:27:59.545Z,19.17
2019-03-21T13:36:28.571Z,25.50
2019-03-21T13:39:04.143Z,23.27
2019-03-21T13:47:44.592Z,22.43
2019-03-21T13:53:18.923Z,22.20
2019-03-21T13:58:37.461Z,20.03
2019-03-21T14:13:43.983Z,18.57
2019-03-21T14:25:38.968Z,19.60
2019-03-21T14:28:12.040Z,24.63
2019-03-21T14:30:45.816Z,20.03
2019-03-21T16:21:32.774Z,35.90
2019-03-21T16:33:15.840Z,44.27
2019-03-21T16:38:47.924Z,42.20
2019-03-21T16:41:29.320Z,43.13
2019-03-21T16:44:09.035Z,43.63
2019-03-21T16:46:50.777Z,42.43
2019-03-21T16:49:20.787Z,41.37
2019-03-21T16:54:51.605Z,41.13
2019-03-21T16:57:39.686Z,40.27
2019-03-21T17:03:20.473Z,40.83
2019-03-21T17:09:19.502Z,39.17
2019-03-21T17:11:52.012Z,39.30
2019-03-21T17:14:22.591Z,38.07
2019-03-21T17:20:05.601Z,39.93
2019-03-21T17:28:46.351Z,39.47
2019-03-21T17:34:28.044Z,41.27
2019-03-21T18:02:02.803Z,42.40
2019-03-21T18:04:39.278Z,40.50
2019-03-21T18:07:19.397Z,45.50
2019-03-21T18:12:42.707Z,48.60
2019-03-21T18:15:17.141Z,40.63
2019-03-21T18:17:50.210Z,44.90
2019-03-21T18:20:32.235Z,45.17
2019-03-21T18:23:04.830Z,42.90
2019-03-21T18:25:41.989Z,50.27
2019-03-21T18:34:25.553Z,47.70
2019-03-21T18:36:57.995Z,43.93
2019-03-21T18:45:24.405Z,44.83
2019-03-21T18:50:49.588Z,43.30
2019-03-21T18:53:20.293Z,46.67
2019-03-21T18:55:53.694Z,46.07
2019-03-21T19:07:21.999Z,45.03
2019-03-21T19:10:03.099Z,50.33
2019-03-21T19:12:37.077Z,45.43
2019-03-21T19:15:16.408Z,52.73
2019-03-21T19:17:48.008Z,43.67
2019-03-21T19:20:21.962Z,58.67
2019-03-21T19:22:54.162Z,56.30
2019-03-21T19:25:24.059Z,56.97
2019-03-21T19:27:59.993Z,54.23
2019-03-21T19:33:46.600Z,57.70
2019-03-21T19:36:18.778Z,55.50
2019-03-21T19:38:54.844Z,68.43
2019-03-21T19:41:32.480Z,56.40
2019-03-21T19:44:11.610Z,58.13
2019-03-21T19:46:53.980Z,61.23
2019-03-21T19:49:34.938Z,62.10
2019-03-21T19:52:08.996Z,60.33
2019-03-21T19:54:43.030Z,54.83
2019-03-21T19:57:17.195Z,55.23
2019-03-21T19:59:53.801Z,53.97
2019-03-21T20:02:25.734Z,60.63
2019-03-21T20:04:58.321Z,50.70
2019-03-21T20:07:35.908Z,49.20
2019-03-21T20:10:14.168Z,51.37
2019-03-21T20:12:50.752Z,47.13
2019-03-21T20:15:24.173Z,45.03
2019-03-21T20:17:58.860Z,47.57
2019-03-21T20:20:31.060Z,42.50
2019-03-21T20:23:06.913Z,39.83
2019-03-21T20:25:43.228Z,48.50
2019-03-21T20:28:24.866Z,49.20
2019-03-21T20:33:58.262Z,46.97
2019-03-21T20:36:36.080Z,49.27
2019-03-21T20:39:15.505Z,52.60
2019-03-21T20:44:51.427Z,59.53
2019-03-21T20:50:38.265Z,50.05
2019-03-21T20:56:12.985Z,49.90
2019-03-21T22:22:05.498Z,51.40
2019-03-21T22:27:55.949Z,53.43
2019-03-21T22:33:50.206Z,52.93
2019-03-21T22:39:10.299Z,53.93
2019-03-21T22:41:46.415Z,58.40
2019-03-21T22:44:20.710Z,54.60
2019-03-21T22:49:44.652Z,58.10
2019-03-21T23:05:04.152Z,58.50
2019-03-21T23:07:42.980Z,57.67
2019-03-21T23:10:17.429Z,49.23
2019-03-21T23:12:53.322Z,57.33
2019-03-21T23:15:32.129Z,53.93
2019-03-21T23:18:06.082Z,49.60
2019-03-21T23:20:48.076Z,50.10
2019-03-21T23:23:19.465Z,59.07
2019-03-21T23:25:49.338Z,55.63
2019-03-21T23:28:21.668Z,49.43
2019-03-21T23:30:53.885Z,46.83
2019-03-21T23:33:24.868Z,48.73
2019-03-21T23:36:00.736Z,51.63
2019-03-21T23:38:41.106Z,51.20
2019-03-21T23:41:31.034Z,53.50
2019-03-21T23:44:11.664Z,55.00
2019-03-21T23:46:54.051Z,45.27
2019-03-21T23:49:31.353Z,50.50
2019-03-21T23:52:09.289Z,49.47
2019-03-21T23:54:41.528Z,48.47
2019-03-21T23:57:16.985Z,50.27
2019-03-21T23:59:52.242Z,46.67
